Aviation Digital Data Service (ADDS)

Output produced by METARs form (1054 UTC 30 January 2015)
found at http://aviationweather.gov/adds/metars/
 
KSYR 300857Z 3009/3106 29012G22KT 2SM -SHSN OVC012 
     FM301300 31015G28KT 3SM -SHSN OVC015 
     TEMPO 3013/3015 2SM -SHSN 
     FM310000 31012G22KT P6SM -SHSN BKN025